메인 페이지
METAR-TAF:

METAR-TAF

공항 :

푸아모투 국제공항

통가타푸 섬, 통가

위도: 21-14S, 경도: 175-09W, 고도: 38m

현재 날씨관측

예보는 34분 전, 15:00시(UTC)에 발표되었습니다.
동남동4kt
온도 23°C
습도 94%
기압 1014 hPa
시정 10km 이상
고도 1800ft 상공 구름 조금, 타워링 적운.
고도 12000ft 상공 구름 많음

METAR: NFTF 241500Z 12004KT 9999 FEW018TCU BKN120 23/22 Q1014 RMK GRAS S DEW

시각: 04:34 (15:34 UTC)

예보

예보는 4 시간 31분 전, 11:03시(UTC)에 발표되었습니다.
예보 대상 시간: 24일 12시부터 25일 12시까지 (UTC)
남동5kt
시정 10km 이상
고도 1000ft 상공 구름 조금
고도 1600ft 상공 구름 보통
고도 10000ft 상공 구름 많음
확률 40% :
일시적
24일 12시부터 25일 06시까지 (UTC)
시정: 7000m
고도 900ft 상공 구름 조금
고도 1600ft 상공 구름 많음
소나기

TAF: NFTF 241103Z 2412/2512 14005KT 9999 FEW010 SCT016 BKN100 PROB40 TEMPO 2412/2506 7000 SHRA FEW009 BKN016

4,000개 이상의 공항 관측 자료 및 예보 (METAR 및 TAF 보고).

지도상에서 검색 가능한 기상관측소가 노란 점과 빨간 점으로 표시되어 있습니다.

기상관측소 명을 보려면 표시 위로 마우스를 이동하세요.

날씨 관측과 예보를 보려면 클릭하세요.

지도 변경 : 확대하려면 엑스 표시가 있는 녹색 버튼, 축소하려면 빼기 표시가 있는 녹색 버튼, 다음 페이지의 지도를 보려면 녹색 화살표를 클릭하세요.


METAR-TAF: